Time;durP1;ratioP1;P1;durP2;ratioP2;P2;SDS_P1;SDS_P2;PMS_P1;PMS_P2;Temp;Humidity;BMP_temperature;BMP_pressure;BME280_temperature;BME280_humidity;BME280_pressure;Samples;Min_cycle;Max_cycle;Signal;HPM_P1;HPM_P2
2023/11/03 00:01:11;0.00;0.00;0.62;0.00;0.00;0.62;2.50;1.43;;;23.80;29.30;;;;;;2252411;61;20370;-62
2023/11/03 00:03:56;0.00;0.00;0.62;0.00;0.00;0.62;2.10;1.33;;;23.80;29.30;;;;;;2252198;61;20529;-60
2023/11/03 00:06:42;0.00;0.00;0.62;0.00;0.00;0.62;2.00;1.40;;;23.80;29.30;;;;;;2248943;61;20907;-60
2023/11/03 00:09:30;0.00;0.00;0.62;0.00;0.00;0.62;1.50;0.90;;;23.80;29.30;;;;;;2252015;61;20454;-60
2023/11/03 00:12:14;0.00;0.00;0.62;0.00;0.00;0.62;2.17;1.47;;;23.80;29.30;;;;;;2251839;61;20495;-61
2023/11/03 00:14:59;0.00;0.00;0.62;0.00;0.00;0.62;3.60;1.93;;;23.80;29.30;;;;;;2252166;61;20940;-59
2023/11/03 00:17:43;0.00;0.00;0.62;0.00;0.00;0.62;1.80;1.20;;;23.80;29.30;;;;;;2252173;61;20398;-60
2023/11/03 00:20:28;0.00;0.00;0.62;0.00;0.00;0.62;2.87;1.57;;;23.70;29.20;;;;;;2252092;61;20887;-61
2023/11/03 00:23:13;0.00;0.00;0.62;0.00;0.00;0.62;2.10;1.40;;;23.80;29.30;;;;;;2252299;61;20362;-60
2023/11/03 00:25:59;0.00;0.00;0.62;0.00;0.00;0.62;2.80;1.70;;;23.70;29.20;;;;;;2252140;61;20367;-62
2023/11/03 00:28:43;0.00;0.00;0.62;0.00;0.00;0.62;2.80;1.87;;;23.70;29.20;;;;;;2251356;61;20810;-63
2023/11/03 00:31:28;0.00;0.00;0.62;0.00;0.00;0.62;2.00;1.40;;;23.80;29.30;;;;;;2252410;61;20374;-59
2023/11/03 00:34:14;0.00;0.00;0.62;0.00;0.00;0.62;2.10;1.30;;;23.70;29.20;;;;;;2251773;61;20839;-63
2023/11/03 00:36:59;0.00;0.00;0.62;0.00;0.00;0.62;3.47;1.80;;;23.70;29.20;;;;;;2252246;61;20394;-62
2023/11/03 00:39:44;0.00;0.00;0.62;0.00;0.00;0.62;3.10;2.03;;;23.70;29.20;;;;;;2251916;61;20417;-62
2023/11/03 00:42:30;0.00;0.00;0.62;0.00;0.00;0.62;2.47;1.60;;;23.70;29.20;;;;;;2252007;61;20742;-59
2023/11/03 00:45:16;0.00;0.00;0.62;0.00;0.00;0.62;2.40;1.60;;;23.70;29.20;;;;;;2252042;61;20489;-61
2023/11/03 00:48:00;0.00;0.00;0.62;0.00;0.00;0.62;2.73;1.73;;;23.70;29.20;;;;;;2251739;61;20363;-63
2023/11/03 00:50:45;0.00;0.00;0.62;0.00;0.00;0.62;2.73;1.90;;;23.80;29.30;;;;;;2251822;61;20899;-61
2023/11/03 00:53:29;0.00;0.00;0.62;0.00;0.00;0.62;5.63;1.90;;;23.70;29.20;;;;;;2251730;61;20407;-61
2023/11/03 00:56:14;0.00;0.00;0.62;0.00;0.00;0.62;2.97;1.57;;;23.70;29.20;;;;;;2252020;61;20398;-59
2023/11/03 00:59:00;0.00;0.00;0.62;0.00;0.00;0.62;2.20;1.50;;;23.70;29.20;;;;;;2251289;61;20370;-62
2023/11/03 01:01:45;0.00;0.00;0.62;0.00;0.00;0.62;3.40;1.83;;;23.70;29.20;;;;;;2252169;61;20367;-60
2023/11/03 01:04:30;0.00;0.00;0.62;0.00;0.00;0.62;3.20;2.00;;;23.70;29.20;;;;;;2248826;61;20478;-58
2023/11/03 01:07:14;0.00;0.00;0.62;0.00;0.00;0.62;2.83;1.70;;;23.70;29.20;;;;;;2252434;61;20437;-61
2023/11/03 01:10:01;0.00;0.00;0.62;0.00;0.00;0.62;2.87;1.70;;;23.80;29.30;;;;;;2251939;61;20655;-60
2023/11/03 01:12:45;0.00;0.00;0.62;0.00;0.00;0.62;2.67;1.90;;;23.70;29.20;;;;;;2251700;61;20370;-61
2023/11/03 01:15:32;0.00;0.00;0.62;0.00;0.00;0.62;3.37;2.17;;;23.70;29.20;;;;;;2252069;61;20387;-60
2023/11/03 01:18:16;0.00;0.00;0.62;0.00;0.00;0.62;2.60;1.80;;;23.70;29.20;;;;;;2251581;61;20789;-58
2023/11/03 01:21:03;0.00;0.00;0.62;0.00;0.00;0.62;2.97;2.10;;;23.70;29.20;;;;;;2252191;61;20418;-60
2023/11/03 01:23:48;0.00;0.00;0.62;0.00;0.00;0.62;2.63;1.73;;;23.70;29.20;;;;;;2252096;61;20390;-63
2023/11/03 01:26:33;0.00;0.00;0.62;0.00;0.00;0.62;2.27;1.60;;;23.70;29.20;;;;;;2251934;61;20764;-59
2023/11/03 01:29:18;0.00;0.00;0.62;0.00;0.00;0.62;2.80;1.40;;;23.70;29.20;;;;;;2251702;61;20367;-60
2023/11/03 01:32:04;0.00;0.00;0.62;0.00;0.00;0.62;2.83;1.90;;;23.70;29.20;;;;;;2252061;61;20788;-61
2023/11/03 01:34:50;0.00;0.00;0.62;0.00;0.00;0.62;2.90;2.00;;;23.70;29.20;;;;;;2245887;61;20394;-59
2023/11/03 01:37:34;0.00;0.00;0.62;0.00;0.00;0.62;3.20;1.90;;;23.70;29.20;;;;;;2252095;61;20906;-58
2023/11/03 01:40:19;0.00;0.00;0.62;0.00;0.00;0.62;3.20;1.77;;;23.70;29.20;;;;;;2248618;61;20367;-58
2023/11/03 01:43:04;0.00;0.00;0.62;0.00;0.00;0.62;3.63;1.97;;;23.70;29.20;;;;;;2251793;61;20403;-60
2023/11/03 01:45:49;0.00;0.00;0.62;0.00;0.00;0.62;3.30;1.40;;;23.70;29.20;;;;;;2248928;61;20367;-60
2023/11/03 01:48:35;0.00;0.00;0.62;0.00;0.00;0.62;2.30;1.73;;;23.70;29.20;;;;;;2250630;61;20915;-61
2023/11/03 01:51:20;0.00;0.00;0.62;0.00;0.00;0.62;2.33;1.53;;;23.70;29.20;;;;;;2248931;61;20437;-58
2023/11/03 01:54:05;0.00;0.00;0.62;0.00;0.00;0.62;2.20;1.53;;;23.70;29.20;;;;;;2251889;61;20433;-62
2023/11/03 01:56:50;0.00;0.00;0.62;0.00;0.00;0.62;5.03;2.63;;;23.70;29.20;;;;;;2251624;61;20407;-61
2023/11/03 01:59:35;0.00;0.00;0.62;0.00;0.00;0.62;3.27;2.30;;;23.70;29.20;;;;;;2248487;61;20406;-61
2023/11/03 02:02:20;0.00;0.00;0.62;0.00;0.00;0.62;3.50;1.97;;;23.70;29.20;;;;;;2251414;61;20363;-62
2023/11/03 02:05:07;0.00;0.00;0.62;0.00;0.00;0.62;2.43;1.43;;;23.70;29.20;;;;;;2251708;61;20843;-61
2023/11/03 02:07:52;0.00;0.00;0.62;0.00;0.00;0.62;3.30;1.90;;;23.70;29.20;;;;;;2251640;61;20429;-60
2023/11/03 02:10:42;0.00;0.00;0.62;0.00;0.00;0.62;2.80;1.57;;;23.70;29.10;;;;;;2248398;61;20373;-62
2023/11/03 02:13:29;0.00;0.00;0.62;0.00;0.00;0.62;3.00;1.67;;;23.70;29.10;;;;;;2252038;61;20367;-59
2023/11/03 02:16:14;0.00;0.00;0.62;0.00;0.00;0.62;2.43;1.70;;;23.60;29.00;;;;;;2248645;61;20822;-62
2023/11/03 02:18:58;0.00;0.00;0.62;0.00;0.00;0.62;3.23;2.07;;;23.70;29.10;;;;;;2250688;61;20366;-60
2023/11/03 02:21:44;0.00;0.00;0.62;0.00;0.00;0.62;3.10;1.80;;;23.70;29.00;;;;;;2252036;61;20573;-61
2023/11/03 02:24:33;0.00;0.00;0.62;0.00;0.00;0.62;4.00;2.10;;;23.60;28.90;;;;;;2249352;61;20453;-63
2023/11/03 02:27:20;0.00;0.00;0.62;0.00;0.00;0.62;2.80;1.70;;;23.70;29.00;;;;;;2252391;61;20433;-59
2023/11/03 02:30:06;0.00;0.00;0.62;0.00;0.00;0.62;3.77;2.47;;;23.60;28.90;;;;;;2251646;61;20366;-60
2023/11/03 02:32:52;0.00;0.00;0.62;0.00;0.00;0.62;2.30;1.37;;;23.60;28.90;;;;;;2248364;61;20371;-62
2023/11/03 02:35:36;0.00;0.00;0.62;0.00;0.00;0.62;2.10;1.40;;;23.60;28.90;;;;;;2251764;61;20449;-62
2023/11/03 02:38:21;0.00;0.00;0.62;0.00;0.00;0.62;3.83;1.90;;;23.60;28.80;;;;;;2251453;61;20378;-61
2023/11/03 02:41:07;0.00;0.00;0.62;0.00;0.00;0.62;4.10;2.03;;;23.60;28.80;;;;;;2251605;61;20366;-61
2023/11/03 02:43:52;0.00;0.00;0.62;0.00;0.00;0.62;3.33;1.80;;;23.60;28.80;;;;;;2248845;61;20943;-63
2023/11/03 02:46:37;0.00;0.00;0.62;0.00;0.00;0.62;3.30;2.07;;;23.60;28.90;;;;;;2614608;45;20446;-60
2023/11/03 02:49:21;0.00;0.00;0.62;0.00;0.00;0.62;3.03;1.60;;;23.60;28.90;;;;;;2251208;61;20927;-61
2023/11/03 02:52:06;0.00;0.00;0.62;0.00;0.00;0.62;3.33;1.83;;;23.60;28.80;;;;;;2252139;61;20390;-61
2023/11/03 02:54:50;0.00;0.00;0.62;0.00;0.00;0.62;2.93;1.67;;;23.60;28.80;;;;;;2251375;61;20446;-63
2023/11/03 02:57:36;0.00;0.00;0.62;0.00;0.00;0.62;3.40;1.80;;;23.60;28.80;;;;;;2248852;61;20410;-62
2023/11/03 03:00:22;0.00;0.00;0.62;0.00;0.00;0.62;2.53;1.77;;;23.60;28.80;;;;;;2248614;61;20375;-61
2023/11/03 03:03:07;0.00;0.00;0.62;0.00;0.00;0.62;3.10;1.73;;;23.60;28.80;;;;;;2251311;61;20398;-58
2023/11/03 03:05:52;0.00;0.00;0.62;0.00;0.00;0.62;3.07;1.77;;;23.60;28.80;;;;;;2251915;61;20921;-59
2023/11/03 03:08:36;0.00;0.00;0.62;0.00;0.00;0.62;3.10;2.17;;;23.60;28.80;;;;;;2251403;61;20880;-60
2023/11/03 03:11:21;0.00;0.00;0.62;0.00;0.00;0.62;2.57;1.57;;;23.60;28.80;;;;;;2251527;61;20470;-61
2023/11/03 03:14:08;0.00;0.00;0.62;0.00;0.00;0.62;3.57;2.30;;;23.60;28.80;;;;;;2248621;61;20391;-60
2023/11/03 03:16:53;0.00;0.00;0.62;0.00;0.00;0.62;2.60;1.43;;;23.60;28.80;;;;;;2251506;61;20418;-63
2023/11/03 03:19:38;0.00;0.00;0.62;0.00;0.00;0.62;3.37;2.00;;;23.60;28.80;;;;;;2251488;61;20832;-61
2023/11/03 03:22:22;0.00;0.00;0.62;0.00;0.00;0.62;2.60;1.60;;;23.60;28.80;;;;;;2248885;61;20780;-58
2023/11/03 03:25:08;0.00;0.00;0.62;0.00;0.00;0.62;3.60;1.37;;;23.60;28.80;;;;;;2248119;61;20474;-59
2023/11/03 03:27:55;0.00;0.00;0.62;0.00;0.00;0.62;2.97;1.87;;;23.60;28.80;;;;;;2251536;61;20374;-63
2023/11/03 03:30:42;0.00;0.00;0.62;0.00;0.00;0.62;2.47;1.67;;;23.60;28.80;;;;;;2251789;61;20370;-60
2023/11/03 03:33:27;0.00;0.00;0.62;0.00;0.00;0.62;1.93;1.20;;;23.50;28.70;;;;;;2248025;61;20458;-60
2023/11/03 03:36:11;0.00;0.00;0.62;0.00;0.00;0.62;2.17;1.37;;;23.50;28.70;;;;;;2248676;61;20433;-59
2023/11/03 03:38:57;0.00;0.00;0.62;0.00;0.00;0.62;2.77;1.60;;;23.50;28.70;;;;;;2252177;61;20371;-61
2023/11/03 03:41:41;0.00;0.00;0.62;0.00;0.00;0.62;2.50;1.50;;;23.50;28.70;;;;;;2249279;61;20371;-60
2023/11/03 03:44:26;0.00;0.00;0.62;0.00;0.00;0.62;2.00;1.50;;;23.50;28.70;;;;;;2249214;61;20498;-59
2023/11/03 03:47:12;0.00;0.00;0.62;0.00;0.00;0.62;2.60;1.73;;;23.50;28.70;;;;;;2252018;61;20387;-61
2023/11/03 03:49:58;0.00;0.00;0.62;0.00;0.00;0.62;2.33;1.47;;;23.50;28.70;;;;;;2252451;61;20429;-67
2023/11/03 03:52:43;0.00;0.00;0.62;0.00;0.00;0.62;2.30;1.30;;;23.50;28.70;;;;;;2249181;61;20382;-61
2023/11/03 03:55:27;0.00;0.00;0.62;0.00;0.00;0.62;2.80;1.50;;;23.50;28.70;;;;;;2248894;61;20409;-62
2023/11/03 03:58:12;0.00;0.00;0.62;0.00;0.00;0.62;2.07;1.17;;;23.50;28.80;;;;;;2252098;61;20466;-61
2023/11/03 04:00:57;0.00;0.00;0.62;0.00;0.00;0.62;2.30;1.33;;;23.50;28.80;;;;;;2252445;61;20905;-58
2023/11/03 04:03:43;0.00;0.00;0.62;0.00;0.00;0.62;2.30;1.23;;;23.50;28.80;;;;;;2252061;61;20717;-61
2023/11/03 04:06:29;0.00;0.00;0.62;0.00;0.00;0.62;2.63;1.60;;;23.50;28.80;;;;;;2252532;61;20421;-58
2023/11/03 04:09:13;0.00;0.00;0.62;0.00;0.00;0.62;3.30;1.80;;;23.50;28.80;;;;;;2251663;61;20367;-61
2023/11/03 04:11:58;0.00;0.00;0.62;0.00;0.00;0.62;2.17;1.20;;;23.50;28.80;;;;;;2249332;61;20907;-61
2023/11/03 04:14:43;0.00;0.00;0.62;0.00;0.00;0.62;2.60;1.30;;;23.50;28.90;;;;;;2252222;61;20656;-60
2023/11/03 04:17:27;0.00;0.00;0.62;0.00;0.00;0.62;2.30;1.30;;;23.50;28.90;;;;;;2252054;61;20488;-61
2023/11/03 04:20:13;0.00;0.00;0.62;0.00;0.00;0.62;1.93;1.37;;;23.50;28.90;;;;;;2252096;61;20366;-60
2023/11/03 04:22:58;0.00;0.00;0.62;0.00;0.00;0.62;2.57;1.60;;;23.50;28.90;;;;;;2252318;61;20771;-61
2023/11/03 04:25:43;0.00;0.00;0.62;0.00;0.00;0.62;2.50;1.23;;;23.50;29.00;;;;;;2250987;61;20375;-60
2023/11/03 04:28:28;0.00;0.00;0.62;0.00;0.00;0.62;2.10;1.07;;;23.50;29.00;;;;;;2252030;61;20382;-61
2023/11/03 04:31:13;0.00;0.00;0.62;0.00;0.00;0.62;2.20;1.17;;;23.50;29.00;;;;;;2251927;61;20363;-59
2023/11/03 04:33:57;0.00;0.00;0.62;0.00;0.00;0.62;1.90;1.20;;;23.50;29.00;;;;;;2248116;61;21055;-61
2023/11/03 04:36:43;0.00;0.00;0.62;0.00;0.00;0.62;2.50;1.20;;;23.50;29.00;;;;;;2251980;61;20433;-61
2023/11/03 04:39:28;0.00;0.00;0.62;0.00;0.00;0.62;2.17;1.20;;;23.50;29.00;;;;;;2251588;61;20362;-61
2023/11/03 04:42:12;0.00;0.00;0.62;0.00;0.00;0.62;2.30;1.30;;;23.50;29.10;;;;;;2252206;61;20550;-62
2023/11/03 04:44:57;0.00;0.00;0.62;0.00;0.00;0.62;2.83;1.40;;;23.50;29.00;;;;;;2252024;61;20530;-60
2023/11/03 04:47:42;0.00;0.00;0.62;0.00;0.00;0.62;2.03;1.17;;;23.50;29.10;;;;;;2248730;61;20466;-58
2023/11/03 04:50:26;0.00;0.00;0.62;0.00;0.00;0.62;3.17;1.60;;;23.50;29.00;;;;;;2252251;61;20410;-60
2023/11/03 04:53:12;0.00;0.00;0.62;0.00;0.00;0.62;3.20;1.37;;;23.40;29.00;;;;;;2252241;61;20367;-61
2023/11/03 04:55:57;0.00;0.00;0.62;0.00;0.00;0.62;2.57;1.17;;;23.40;29.00;;;;;;2252361;61;20927;-61
2023/11/03 04:58:42;0.00;0.00;0.62;0.00;0.00;0.62;2.20;1.30;;;23.40;29.00;;;;;;2251832;61;20371;-61
2023/11/03 05:01:28;0.00;0.00;0.62;0.00;0.00;0.62;3.60;1.30;;;23.40;29.00;;;;;;2251932;61;20417;-60
2023/11/03 05:04:14;0.00;0.00;0.62;0.00;0.00;0.62;2.20;1.40;;;23.40;29.00;;;;;;2252207;61;20963;-60
2023/11/03 05:06:59;0.00;0.00;0.62;0.00;0.00;0.62;2.80;1.27;;;23.40;29.00;;;;;;2252006;61;20355;-59
2023/11/03 05:09:45;0.00;0.00;0.62;0.00;0.00;0.62;2.23;1.27;;;23.40;29.00;;;;;;2251615;61;20439;-59
2023/11/03 05:12:29;0.00;0.00;0.62;0.00;0.00;0.62;1.83;1.17;;;23.40;29.00;;;;;;2252367;61;20390;-59
2023/11/03 05:15:14;0.00;0.00;0.62;0.00;0.00;0.62;2.07;1.10;;;23.40;29.00;;;;;;2251846;61;20473;-59
2023/11/03 05:17:59;0.00;0.00;0.62;0.00;0.00;0.62;2.03;1.33;;;23.40;29.50;;;;;;2248545;61;20904;-60
2023/11/03 05:20:44;0.00;0.00;0.62;0.00;0.00;0.62;2.80;1.50;;;23.40;29.00;;;;;;2252057;61;20421;-60
2023/11/03 05:23:28;0.00;0.00;0.62;0.00;0.00;0.62;2.23;1.37;;;23.40;29.00;;;;;;2251884;61;20409;-62
2023/11/03 05:26:14;0.00;0.00;0.62;0.00;0.00;0.62;2.23;1.40;;;23.40;29.00;;;;;;2252101;61;20417;-60
2023/11/03 05:28:58;0.00;0.00;0.62;0.00;0.00;0.62;2.60;2.10;;;23.40;29.00;;;;;;2251701;61;20363;-61
2023/11/03 05:31:43;0.00;0.00;0.62;0.00;0.00;0.62;2.37;1.83;;;23.40;29.00;;;;;;2251949;61;20874;-60
2023/11/03 05:34:27;0.00;0.00;0.62;0.00;0.00;0.62;1.97;1.43;;;23.40;29.00;;;;;;2252076;61;21091;-61
2023/11/03 05:37:12;0.00;0.00;0.62;0.00;0.00;0.62;2.77;1.80;;;23.40;29.00;;;;;;2252010;61;20390;-62
2023/11/03 05:39:56;0.00;0.00;0.62;0.00;0.00;0.62;3.23;1.87;;;23.40;29.00;;;;;;2251369;61;20362;-56
2023/11/03 05:42:42;0.00;0.00;0.62;0.00;0.00;0.62;2.07;1.47;;;23.40;29.00;;;;;;2251839;61;20390;-59
2023/11/03 05:45:27;0.00;0.00;0.62;0.00;0.00;0.62;2.90;2.13;;;23.40;29.00;;;;;;2251672;61;20433;-60
2023/11/03 05:48:11;0.00;0.00;0.62;0.00;0.00;0.62;2.80;1.93;;;23.40;29.00;;;;;;2251718;61;20558;-59
2023/11/03 05:50:56;0.00;0.00;0.62;0.00;0.00;0.62;3.10;2.00;;;23.40;29.00;;;;;;2251934;61;20436;-60
2023/11/03 05:53:40;0.00;0.00;0.62;0.00;0.00;0.62;3.50;2.23;;;23.40;29.00;;;;;;2251747;61;20922;-60
2023/11/03 05:56:25;0.00;0.00;0.62;0.00;0.00;0.62;3.10;2.10;;;23.40;29.00;;;;;;2248975;61;20383;-59
2023/11/03 05:59:11;0.00;0.00;0.62;0.00;0.00;0.62;3.33;2.77;;;23.40;29.00;;;;;;2251361;61;20787;-61
2023/11/03 06:01:56;0.00;0.00;0.62;0.00;0.00;0.62;2.93;2.07;;;23.40;29.00;;;;;;2251967;61;20367;-62
2023/11/03 06:04:42;0.00;0.00;0.62;0.00;0.00;0.62;4.17;2.90;;;23.40;29.00;;;;;;2251911;61;20449;-58
2023/11/03 06:07:26;0.00;0.00;0.62;0.00;0.00;0.62;3.97;3.40;;;23.40;29.00;;;;;;2251975;61;20367;-61
2023/11/03 06:10:13;0.00;0.00;0.62;0.00;0.00;0.62;6.20;3.23;;;23.40;29.00;;;;;;2251847;61;20375;-57
2023/11/03 06:12:58;0.00;0.00;0.62;0.00;0.00;0.62;4.70;3.60;;;23.40;29.00;;;;;;2251909;61;20391;-60
2023/11/03 06:15:44;0.00;0.00;0.62;0.00;0.00;0.62;6.67;4.27;;;23.40;29.00;;;;;;2251515;61;20545;-61
2023/11/03 06:18:29;0.00;0.00;0.62;0.00;0.00;0.62;6.97;4.90;;;23.40;29.00;;;;;;2251676;61;20433;-62
2023/11/03 06:21:14;0.00;0.00;0.62;0.00;0.00;0.62;6.00;4.50;;;23.40;29.00;;;;;;2251679;61;20421;-62
2023/11/03 06:23:58;0.00;0.00;0.62;0.00;0.00;0.62;7.10;5.23;;;23.40;29.00;;;;;;2251738;61;20390;-61
2023/11/03 06:26:43;0.00;0.00;0.62;0.00;0.00;0.62;7.60;6.03;;;23.40;29.00;;;;;;2252054;61;20397;-60
2023/11/03 06:29:27;0.00;0.00;0.62;0.00;0.00;0.62;7.67;6.17;;;23.40;29.00;;;;;;2251127;61;20399;-61
2023/11/03 06:32:13;0.00;0.00;0.62;0.00;0.00;0.62;7.50;5.73;;;23.40;29.00;;;;;;2251994;61;20374;-62
2023/11/03 06:34:58;0.00;0.00;0.62;0.00;0.00;0.62;8.63;6.50;;;23.40;29.00;;;;;;2252031;61;20402;-61
2023/11/03 06:37:42;0.00;0.00;0.62;0.00;0.00;0.62;9.30;6.97;;;23.40;29.00;;;;;;2251536;61;20931;-62
2023/11/03 06:40:28;0.00;0.00;0.62;0.00;0.00;0.62;7.83;6.20;;;23.40;29.00;;;;;;2252002;61;20465;-62
2023/11/03 06:43:13;0.00;0.00;0.62;0.00;0.00;0.62;9.10;6.70;;;23.40;29.00;;;;;;2251820;61;20366;-62
2023/11/03 06:45:58;0.00;0.00;0.62;0.00;0.00;0.62;8.93;6.73;;;23.40;29.00;;;;;;2251616;61;20409;-61
2023/11/03 06:48:44;0.00;0.00;0.62;0.00;0.00;0.62;8.30;6.70;;;23.40;29.00;;;;;;2251537;61;20494;-60
2023/11/03 06:51:28;0.00;0.00;0.62;0.00;0.00;0.62;9.83;7.00;;;23.40;29.00;;;;;;2245728;61;20508;-61
2023/11/03 06:54:13;0.00;0.00;0.62;0.00;0.00;0.62;8.53;6.73;;;23.40;29.00;;;;;;2251991;61;20386;-61
2023/11/03 06:56:57;0.00;0.00;0.62;0.00;0.00;0.62;7.70;6.13;;;23.40;29.00;;;;;;2251762;61;20399;-61
2023/11/03 06:59:42;0.00;0.00;0.62;0.00;0.00;0.62;8.37;7.10;;;23.40;29.00;;;;;;2247902;61;20891;-62
2023/11/03 07:02:26;0.00;0.00;0.62;0.00;0.00;0.62;9.40;7.40;;;23.40;29.00;;;;;;2251985;61;20371;-62
2023/11/03 07:05:13;0.00;0.00;0.62;0.00;0.00;0.62;8.13;6.17;;;23.40;29.00;;;;;;2251728;61;20437;-60
2023/11/03 07:07:58;0.00;0.00;0.62;0.00;0.00;0.62;8.03;6.20;;;23.40;29.00;;;;;;2251115;61;20505;-63
2023/11/03 07:10:44;0.00;0.00;0.62;0.00;0.00;0.62;9.30;6.40;;;23.30;28.90;;;;;;2251837;61;20418;-61
2023/11/03 07:13:29;0.00;0.00;0.62;0.00;0.00;0.62;8.40;6.47;;;23.30;28.90;;;;;;2252413;61;20409;-63
2023/11/03 07:16:15;0.00;0.00;0.62;0.00;0.00;0.62;9.03;7.20;;;23.40;29.00;;;;;;2252100;61;21000;-60
2023/11/03 07:19:00;0.00;0.00;0.62;0.00;0.00;0.62;8.10;6.23;;;23.30;28.90;;;;;;2249111;61;20368;-60
2023/11/03 07:21:50;0.00;0.00;0.62;0.00;0.00;0.62;8.00;6.80;;;23.30;28.90;;;;;;2252041;61;20366;-62
2023/11/03 07:24:35;0.00;0.00;0.62;0.00;0.00;0.62;7.00;6.03;;;23.30;28.90;;;;;;2252466;61;20449;-62
2023/11/03 07:27:20;0.00;0.00;0.62;0.00;0.00;0.62;8.27;6.67;;;23.30;28.90;;;;;;2252402;61;20451;-60
2023/11/03 07:30:07;0.00;0.00;0.62;0.00;0.00;0.62;7.83;6.30;;;23.40;29.00;;;;;;2252009;61;20362;-62
2023/11/03 07:32:52;0.00;0.00;0.62;0.00;0.00;0.62;8.00;6.60;;;23.30;28.90;;;;;;2252457;61;20365;-61
2023/11/03 07:35:37;0.00;0.00;0.62;0.00;0.00;0.62;8.23;6.53;;;23.30;28.90;;;;;;2249182;61;20371;-62
2023/11/03 07:38:23;0.00;0.00;0.62;0.00;0.00;0.62;9.80;6.70;;;23.30;28.90;;;;;;2251860;61;20370;-63
2023/11/03 07:41:10;0.00;0.00;0.62;0.00;0.00;0.62;9.47;6.97;;;23.30;28.90;;;;;;2252499;61;20433;-62
2023/11/03 07:43:55;0.00;0.00;0.62;0.00;0.00;0.62;8.10;6.50;;;23.30;28.90;;;;;;2251831;61;20424;-62
2023/11/03 07:46:40;0.00;0.00;0.62;0.00;0.00;0.62;9.10;6.83;;;23.30;28.90;;;;;;2252451;61;20359;-61
2023/11/03 07:49:24;0.00;0.00;0.62;0.00;0.00;0.62;8.43;7.50;;;23.30;28.90;;;;;;2251402;61;20959;-62
2023/11/03 07:52:09;0.00;0.00;0.62;0.00;0.00;0.62;8.87;7.00;;;23.30;28.90;;;;;;2252266;61;20447;-62
2023/11/03 07:54:55;0.00;0.00;0.62;0.00;0.00;0.62;7.90;6.40;;;23.30;28.90;;;;;;2249253;61;20491;-61
2023/11/03 07:57:40;0.00;0.00;0.62;0.00;0.00;0.62;8.50;6.80;;;23.30;28.90;;;;;;2249099;61;20399;-63
2023/11/03 08:00:25;0.00;0.00;0.62;0.00;0.00;0.62;8.40;6.07;;;23.30;28.90;;;;;;2252214;61;20892;-62
2023/11/03 08:03:10;0.00;0.00;0.62;0.00;0.00;0.62;7.13;6.33;;;23.30;28.90;;;;;;2249389;61;20498;-62
2023/11/03 08:05:55;0.00;0.00;0.62;0.00;0.00;0.62;9.13;7.03;;;23.30;28.90;;;;;;2248819;61;20417;-61
2023/11/03 08:08:39;0.00;0.00;0.62;0.00;0.00;0.62;8.23;6.67;;;23.30;28.90;;;;;;2248935;61;20938;-61
2023/11/03 08:11:25;0.00;0.00;0.62;0.00;0.00;0.62;8.20;6.00;;;23.30;28.90;;;;;;2252284;61;20367;-62
2023/11/03 08:14:10;0.00;0.00;0.62;0.00;0.00;0.62;7.80;6.43;;;23.30;28.90;;;;;;2252039;61;20414;-62
2023/11/03 08:16:55;0.00;0.00;0.62;0.00;0.00;0.62;7.73;6.17;;;23.30;28.90;;;;;;2252112;61;20433;-63
2023/11/03 08:19:39;0.00;0.00;0.62;0.00;0.00;0.62;7.60;6.17;;;23.30;28.90;;;;;;2248703;61;20355;-62
2023/11/03 08:22:28;0.00;0.00;0.62;0.00;0.00;0.62;8.10;6.83;;;23.30;28.90;;;;;;2252098;61;20398;-60
2023/11/03 08:25:13;0.00;0.00;0.62;0.00;0.00;0.62;9.57;6.70;;;23.30;28.90;;;;;;2252242;61;20382;-61
2023/11/03 08:27:59;0.00;0.00;0.62;0.00;0.00;0.62;8.10;6.97;;;23.30;28.90;;;;;;2251678;61;20932;-62
2023/11/03 08:30:43;0.00;0.00;0.62;0.00;0.00;0.62;7.23;6.13;;;23.30;28.90;;;;;;2249250;61;20783;-62
2023/11/03 08:33:28;0.00;0.00;0.62;0.00;0.00;0.62;8.60;6.30;;;23.30;28.90;;;;;;2251902;61;20402;-62
2023/11/03 08:36:13;0.00;0.00;0.62;0.00;0.00;0.62;7.80;6.53;;;23.30;28.90;;;;;;2248713;61;20386;-63
2023/11/03 08:38:57;0.00;0.00;0.62;0.00;0.00;0.62;8.80;6.97;;;23.30;28.90;;;;;;2251973;61;20858;-61
2023/11/03 08:41:42;0.00;0.00;0.62;0.00;0.00;0.62;7.83;6.20;;;23.30;28.90;;;;;;2252155;61;20829;-62
2023/11/03 08:44:28;0.00;0.00;0.62;0.00;0.00;0.62;9.13;6.63;;;23.30;28.90;;;;;;2251349;61;20801;-62
2023/11/03 08:47:12;0.00;0.00;0.62;0.00;0.00;0.62;7.33;6.23;;;23.30;28.90;;;;;;2252389;61;20421;-62
2023/11/03 08:49:57;0.00;0.00;0.62;0.00;0.00;0.62;7.30;6.20;;;23.30;28.90;;;;;;2248698;61;20868;-63
2023/11/03 08:52:44;0.00;0.00;0.62;0.00;0.00;0.62;7.00;6.03;;;23.30;28.90;;;;;;2252473;61;20383;-62
2023/11/03 08:55:29;0.00;0.00;0.62;0.00;0.00;0.62;9.57;7.73;;;23.30;28.90;;;;;;2252271;61;20410;-62
2023/11/03 08:58:13;0.00;0.00;0.62;0.00;0.00;0.62;7.33;6.20;;;23.30;28.90;;;;;;2251729;61;20443;-60
2023/11/03 09:01:00;0.00;0.00;0.62;0.00;0.00;0.62;8.23;6.43;;;23.30;28.90;;;;;;2252279;61;20367;-64
2023/11/03 09:03:45;0.00;0.00;0.62;0.00;0.00;0.62;8.13;6.40;;;23.30;28.90;;;;;;2251919;61;20431;-62
2023/11/03 09:06:29;0.00;0.00;0.62;0.00;0.00;0.62;8.50;6.70;;;23.30;28.90;;;;;;2251634;61;20438;-62
2023/11/03 09:09:13;0.00;0.00;0.62;0.00;0.00;0.62;9.20;6.40;;;23.30;28.90;;;;;;2251723;61;20375;-63
2023/11/03 09:11:58;0.00;0.00;0.62;0.00;0.00;0.62;8.00;6.23;;;23.30;28.90;;;;;;2251773;61;20363;-61
2023/11/03 09:14:42;0.00;0.00;0.62;0.00;0.00;0.62;7.77;6.17;;;23.30;28.90;;;;;;2252558;61;20833;-62
2023/11/03 09:17:30;0.00;0.00;0.62;0.00;0.00;0.62;7.57;5.83;;;23.30;28.90;;;;;;2252005;61;20816;-61
2023/11/03 09:20:17;0.00;0.00;0.62;0.00;0.00;0.62;6.07;5.20;;;23.30;28.90;;;;;;2251770;61;20370;-61
2023/11/03 09:23:02;0.00;0.00;0.62;0.00;0.00;0.62;7.77;6.03;;;23.30;28.90;;;;;;2252203;61;20391;-61
2023/11/03 09:25:47;0.00;0.00;0.62;0.00;0.00;0.62;5.90;5.30;;;23.30;28.90;;;;;;2252058;61;20490;-63
2023/11/03 09:28:31;0.00;0.00;0.62;0.00;0.00;0.62;7.87;5.50;;;23.30;28.90;;;;;;2251461;61;20795;-61
2023/11/03 09:31:16;0.00;0.00;0.62;0.00;0.00;0.62;6.53;5.00;;;23.30;28.90;;;;;;2252280;61;20425;-61
2023/11/03 09:34:04;0.00;0.00;0.62;0.00;0.00;0.62;7.53;5.90;;;23.30;28.90;;;;;;2251925;61;20433;-61
2023/11/03 09:36:49;0.00;0.00;0.62;0.00;0.00;0.62;6.23;5.33;;;23.30;28.90;;;;;;2248639;61;20722;-63
2023/11/03 09:39:35;0.00;0.00;0.62;0.00;0.00;0.62;7.70;5.80;;;23.30;28.90;;;;;;2251986;61;20926;-61
2023/11/03 09:42:22;0.00;0.00;0.62;0.00;0.00;0.62;6.17;5.17;;;23.30;28.90;;;;;;2251593;61;20351;-61
2023/11/03 09:45:12;0.00;0.00;0.62;0.00;0.00;0.62;7.07;5.20;;;23.30;28.90;;;;;;2251074;61;20921;-61
2023/11/03 09:47:59;0.00;0.00;0.62;0.00;0.00;0.62;7.10;5.57;;;23.30;28.90;;;;;;2251752;61;20440;-62
2023/11/03 09:50:47;0.00;0.00;0.62;0.00;0.00;0.62;6.93;5.63;;;23.30;28.90;;;;;;2251951;61;20422;-61
2023/11/03 09:53:34;0.00;0.00;0.62;0.00;0.00;0.62;5.77;4.20;;;23.30;28.90;;;;;;2252286;61;20942;-62
2023/11/03 09:56:19;0.00;0.00;0.62;0.00;0.00;0.62;6.93;5.33;;;23.30;28.90;;;;;;2251948;61;20848;-61
2023/11/03 09:59:07;0.00;0.00;0.62;0.00;0.00;0.62;5.17;4.37;;;23.30;28.90;;;;;;2251603;61;20443;-62
2023/11/03 10:01:53;0.00;0.00;0.62;0.00;0.00;0.62;5.90;5.10;;;23.30;28.90;;;;;;2252131;61;20394;-61
2023/11/03 10:04:38;0.00;0.00;0.62;0.00;0.00;0.62;5.80;4.93;;;23.30;28.90;;;;;;2251701;61;20386;-62
2023/11/03 10:07:24;0.00;0.00;0.62;0.00;0.00;0.62;6.23;4.33;;;23.30;28.90;;;;;;2252017;61;20362;-64
2023/11/03 10:10:10;0.00;0.00;0.62;0.00;0.00;0.62;6.37;4.87;;;23.30;28.90;;;;;;2251653;61;20375;-62
2023/11/03 10:12:57;0.00;0.00;0.62;0.00;0.00;0.62;5.80;5.07;;;23.30;28.90;;;;;;2251840;61;20363;-62
2023/11/03 10:15:43;0.00;0.00;0.62;0.00;0.00;0.62;5.90;4.50;;;23.30;28.80;;;;;;2251886;61;20366;-62
2023/11/03 10:18:28;0.00;0.00;0.62;0.00;0.00;0.62;6.20;4.30;;;23.30;28.80;;;;;;2251826;61;20868;-62
2023/11/03 10:21:13;0.00;0.00;0.62;0.00;0.00;0.62;5.77;4.87;;;23.30;28.80;;;;;;2251900;61;20367;-63
2023/11/03 10:23:59;0.00;0.00;0.62;0.00;0.00;0.62;5.10;3.67;;;23.30;28.80;;;;;;2251980;61;20866;-62
2023/11/03 10:26:44;0.00;0.00;0.62;0.00;0.00;0.62;4.87;3.77;;;23.30;28.70;;;;;;2251800;61;20868;-60
2023/11/03 10:29:30;0.00;0.00;0.62;0.00;0.00;0.62;6.77;4.77;;;23.30;28.70;;;;;;2251936;61;20419;-60
2023/11/03 10:32:14;0.00;0.00;0.62;0.00;0.00;0.62;5.20;3.80;;;23.30;28.70;;;;;;2251744;61;20453;-63
2023/11/03 10:35:03;0.00;0.00;0.62;0.00;0.00;0.62;5.80;4.40;;;23.30;28.60;;;;;;2251870;61;20405;-62
2023/11/03 10:37:47;0.00;0.00;0.62;0.00;0.00;0.62;5.40;3.90;;;23.30;28.70;;;;;;2252444;61;20983;-64
2023/11/03 10:40:33;0.00;0.00;0.62;0.00;0.00;0.62;9.20;4.30;;;23.30;28.70;;;;;;2251828;61;22111;-52
2023/11/03 10:43:23;0.00;0.00;0.62;0.00;0.00;0.62;5.83;4.27;;;23.30;28.80;;;;;;2251749;61;20863;-56
2023/11/03 10:46:18;0.00;0.00;0.62;0.00;0.00;0.62;6.27;3.73;;;23.30;28.90;;;;;;2248898;61;20915;-55
2023/11/03 10:49:15;0.00;0.00;0.62;0.00;0.00;0.62;6.97;4.27;;;23.30;28.90;;;;;;2251089;61;20366;-56
2023/11/03 10:52:10;0.00;0.00;0.62;0.00;0.00;0.62;7.43;4.03;;;23.30;28.90;;;;;;2252642;61;20426;-55